sensor_id;sensor_type;location;lat;lon;timestamp;pressure;altitude;pressure_sealevel;temperature;humidity
9129;BME280;4599;50.906;6.786;2023-12-22T00:00:28;99029.78;;;4.25;93.93
9129;BME280;4599;50.906;6.786;2023-12-22T00:04:30;99010.22;;;3.64;94.06
9129;BME280;4599;50.906;6.786;2023-12-22T00:08:32;99012.53;;;3.67;94.93
9129;BME280;4599;50.906;6.786;2023-12-22T00:12:35;98998.66;;;3.73;95.48
9129;BME280;4599;50.906;6.786;2023-12-22T00:16:36;98980.09;;;3.72;95.95
9129;BME280;4599;50.906;6.786;2023-12-22T00:20:40;98969.47;;;3.80;95.80
9129;BME280;4599;50.906;6.786;2023-12-22T00:24:42;98982.88;;;3.82;95.46
9129;BME280;4599;50.906;6.786;2023-12-22T00:28:45;98988.81;;;3.93;95.46
9129;BME280;4599;50.906;6.786;2023-12-22T00:32:46;99014.06;;;4.08;96.22
9129;BME280;4599;50.906;6.786;2023-12-22T00:36:48;99004.13;;;4.05;95.77
9129;BME280;4599;50.906;6.786;2023-12-22T00:40:50;98993.19;;;4.17;96.13
9129;BME280;4599;50.906;6.786;2023-12-22T00:44:52;99012.97;;;4.12;96.15
9129;BME280;4599;50.906;6.786;2023-12-22T00:48:54;99011.03;;;4.15;96.12
9129;BME280;4599;50.906;6.786;2023-12-22T00:52:55;99017.09;;;4.25;96.13
9129;BME280;4599;50.906;6.786;2023-12-22T00:56:57;99020.06;;;4.19;96.40
9129;BME280;4599;50.906;6.786;2023-12-22T01:01:00;99008.91;;;4.22;96.16
9129;BME280;4599;50.906;6.786;2023-12-22T01:05:02;99048.56;;;4.23;96.57
9129;BME280;4599;50.906;6.786;2023-12-22T01:09:04;99022.38;;;4.22;96.92
9129;BME280;4599;50.906;6.786;2023-12-22T01:13:06;99038.41;;;4.23;97.37
9129;BME280;4599;50.906;6.786;2023-12-22T01:17:09;99053.41;;;4.26;96.87
9129;BME280;4599;50.906;6.786;2023-12-22T01:21:10;99060.66;;;4.32;96.42
9129;BME280;4599;50.906;6.786;2023-12-22T01:25:12;99063.78;;;4.35;96.27
9129;BME280;4599;50.906;6.786;2023-12-22T01:29:13;99058.41;;;4.53;96.13
9129;BME280;4599;50.906;6.786;2023-12-22T01:33:16;99032.13;;;4.41;96.57
9129;BME280;4599;50.906;6.786;2023-12-22T01:37:18;99017.41;;;4.46;96.56
9129;BME280;4599;50.906;6.786;2023-12-22T01:41:19;98974.56;;;4.18;96.80
9129;BME280;4599;50.906;6.786;2023-12-22T01:45:21;99019.22;;;4.44;97.16
9129;BME280;4599;50.906;6.786;2023-12-22T01:49:24;99046.81;;;4.48;96.99
9129;BME280;4599;50.906;6.786;2023-12-22T01:53:26;99044.00;;;4.53;97.56
9129;BME280;4599;50.906;6.786;2023-12-22T01:57:28;99035.88;;;4.48;96.60
9129;BME280;4599;50.906;6.786;2023-12-22T02:01:31;99046.31;;;4.56;96.53
9129;BME280;4599;50.906;6.786;2023-12-22T02:05:35;99049.47;;;4.47;97.08
9129;BME280;4599;50.906;6.786;2023-12-22T02:09:37;99060.94;;;4.40;97.25
9129;BME280;4599;50.906;6.786;2023-12-22T02:13:38;99064.47;;;4.50;97.01
9129;BME280;4599;50.906;6.786;2023-12-22T02:17:44;99048.47;;;4.49;97.06
9129;BME280;4599;50.906;6.786;2023-12-22T02:22:03;99053.81;;;4.58;96.57
9129;BME280;4599;50.906;6.786;2023-12-22T02:26:17;99060.41;;;4.60;96.93
9129;BME280;4599;50.906;6.786;2023-12-22T02:30:25;99065.75;;;4.68;96.77
9129;BME280;4599;50.906;6.786;2023-12-22T02:34:28;99065.97;;;4.78;95.95
9129;BME280;4599;50.906;6.786;2023-12-22T02:38:31;99050.84;;;4.76;95.48
9129;BME280;4599;50.906;6.786;2023-12-22T02:42:35;99019.84;;;4.84;95.56
9129;BME280;4599;50.906;6.786;2023-12-22T02:46:37;99035.09;;;4.71;95.93
9129;BME280;4599;50.906;6.786;2023-12-22T02:50:39;99034.69;;;4.77;95.81
9129;BME280;4599;50.906;6.786;2023-12-22T02:54:41;99033.75;;;4.78;95.10
9129;BME280;4599;50.906;6.786;2023-12-22T02:58:43;99043.19;;;4.89;95.04
9129;BME280;4599;50.906;6.786;2023-12-22T03:02:45;99011.97;;;4.99;94.34
9129;BME280;4599;50.906;6.786;2023-12-22T03:06:47;99026.19;;;5.02;93.58
9129;BME280;4599;50.906;6.786;2023-12-22T03:10:48;99030.78;;;4.97;94.74
9129;BME280;4599;50.906;6.786;2023-12-22T03:14:51;99035.59;;;5.13;93.34
9129;BME280;4599;50.906;6.786;2023-12-22T03:18:53;99028.91;;;5.12;94.30
9129;BME280;4599;50.906;6.786;2023-12-22T03:22:54;99022.03;;;5.25;93.46
9129;BME280;4599;50.906;6.786;2023-12-22T03:26:56;99026.56;;;5.32;92.78
9129;BME280;4599;50.906;6.786;2023-12-22T03:30:59;99025.34;;;5.38;92.61
9129;BME280;4599;50.906;6.786;2023-12-22T03:35:00;99032.25;;;5.36;92.89
9129;BME280;4599;50.906;6.786;2023-12-22T03:39:02;99046.72;;;5.46;92.47
9129;BME280;4599;50.906;6.786;2023-12-22T03:43:04;99038.88;;;5.49;92.06
9129;BME280;4599;50.906;6.786;2023-12-22T03:47:07;99052.34;;;5.63;92.16
9129;BME280;4599;50.906;6.786;2023-12-22T03:51:08;99051.25;;;5.54;89.71
9129;BME280;4599;50.906;6.786;2023-12-22T03:55:10;99045.50;;;5.52;88.39
9129;BME280;4599;50.906;6.786;2023-12-22T03:59:11;99072.94;;;5.47;88.72
9129;BME280;4599;50.906;6.786;2023-12-22T04:03:14;99070.91;;;5.52;88.08
9129;BME280;4599;50.906;6.786;2023-12-22T04:07:16;99062.78;;;5.47;88.23
9129;BME280;4599;50.906;6.786;2023-12-22T04:11:17;99056.63;;;5.38;87.86
9129;BME280;4599;50.906;6.786;2023-12-22T04:15:19;99063.59;;;5.24;87.75
9129;BME280;4599;50.906;6.786;2023-12-22T04:19:22;99078.63;;;5.27;88.13
9129;BME280;4599;50.906;6.786;2023-12-22T04:23:23;99073.69;;;5.13;89.62
9129;BME280;4599;50.906;6.786;2023-12-22T04:27:25;99068.69;;;5.24;88.46
9129;BME280;4599;50.906;6.786;2023-12-22T04:31:26;99061.84;;;5.00;89.69
9129;BME280;4599;50.906;6.786;2023-12-22T04:35:29;99069.28;;;4.91;90.45
9129;BME280;4599;50.906;6.786;2023-12-22T04:39:31;99069.22;;;5.03;90.14
9129;BME280;4599;50.906;6.786;2023-12-22T04:43:32;99064.50;;;4.99;91.54
9129;BME280;4599;50.906;6.786;2023-12-22T04:47:34;99065.84;;;4.92;92.10
9129;BME280;4599;50.906;6.786;2023-12-22T04:51:37;99080.00;;;5.07;90.95
9129;BME280;4599;50.906;6.786;2023-12-22T04:55:38;99063.41;;;5.14;90.74
9129;BME280;4599;50.906;6.786;2023-12-22T04:59:40;99081.03;;;5.28;91.39
9129;BME280;4599;50.906;6.786;2023-12-22T05:03:41;99101.34;;;5.28;91.93
9129;BME280;4599;50.906;6.786;2023-12-22T05:07:44;99096.63;;;5.47;91.58
9129;BME280;4599;50.906;6.786;2023-12-22T05:11:46;99090.22;;;5.66;89.67
9129;BME280;4599;50.906;6.786;2023-12-22T05:15:47;99099.31;;;5.81;89.70
9129;BME280;4599;50.906;6.786;2023-12-22T05:19:49;99094.31;;;5.79;90.01
9129;BME280;4599;50.906;6.786;2023-12-22T05:23:52;99102.88;;;6.02;88.26
9129;BME280;4599;50.906;6.786;2023-12-22T05:27:53;99101.72;;;6.06;88.87
9129;BME280;4599;50.906;6.786;2023-12-22T05:31:55;99101.72;;;6.06;89.29
9129;BME280;4599;50.906;6.786;2023-12-22T05:35:56;99122.91;;;6.18;88.27
9129;BME280;4599;50.906;6.786;2023-12-22T05:39:59;99116.19;;;6.17;87.89
9129;BME280;4599;50.906;6.786;2023-12-22T05:44:01;99115.16;;;6.19;85.86
9129;BME280;4599;50.906;6.786;2023-12-22T05:48:03;99102.13;;;6.35;84.89
9129;BME280;4599;50.906;6.786;2023-12-22T05:52:05;99119.47;;;6.30;85.42
9129;BME280;4599;50.906;6.786;2023-12-22T05:56:18;99117.63;;;6.32;85.36
9129;BME280;4599;50.906;6.786;2023-12-22T06:00:19;99102.84;;;6.37;83.88
9129;BME280;4599;50.906;6.786;2023-12-22T06:04:21;99115.31;;;6.40;84.02
9129;BME280;4599;50.906;6.786;2023-12-22T06:08:23;99129.53;;;6.42;84.55
9129;BME280;4599;50.906;6.786;2023-12-22T06:12:25;99110.56;;;6.35;84.00
9129;BME280;4599;50.906;6.786;2023-12-22T06:16:27;99115.88;;;6.32;85.43
9129;BME280;4599;50.906;6.786;2023-12-22T06:20:29;99109.78;;;6.46;84.81
9129;BME280;4599;50.906;6.786;2023-12-22T06:24:30;99132.22;;;6.41;85.04
9129;BME280;4599;50.906;6.786;2023-12-22T06:28:33;99130.00;;;6.36;85.64
9129;BME280;4599;50.906;6.786;2023-12-22T06:32:35;99134.06;;;6.50;85.84
9129;BME280;4599;50.906;6.786;2023-12-22T06:36:36;99143.19;;;6.41;86.30
9129;BME280;4599;50.906;6.786;2023-12-22T06:40:38;99157.88;;;6.49;87.37
9129;BME280;4599;50.906;6.786;2023-12-22T06:44:42;99158.34;;;6.43;84.52
9129;BME280;4599;50.906;6.786;2023-12-22T06:48:44;99159.22;;;6.20;86.80
9129;BME280;4599;50.906;6.786;2023-12-22T06:52:46;99144.94;;;6.06;86.21
9129;BME280;4599;50.906;6.786;2023-12-22T06:56:48;99132.53;;;5.90;86.13
9129;BME280;4599;50.906;6.786;2023-12-22T07:00:51;99144.13;;;5.94;86.30
9129;BME280;4599;50.906;6.786;2023-12-22T07:05:30;99154.97;;;5.96;87.10
9129;BME280;4599;50.906;6.786;2023-12-22T07:09:32;99163.50;;;5.95;88.69
9129;BME280;4599;50.906;6.786;2023-12-22T07:13:33;99177.03;;;5.96;88.59
9129;BME280;4599;50.906;6.786;2023-12-22T07:17:36;99178.81;;;6.07;89.49
9129;BME280;4599;50.906;6.786;2023-12-22T07:21:38;99162.38;;;5.99;91.32
9129;BME280;4599;50.906;6.786;2023-12-22T07:25:39;99163.41;;;5.97;90.72
9129;BME280;4599;50.906;6.786;2023-12-22T07:29:41;99159.59;;;6.03;90.58
9129;BME280;4599;50.906;6.786;2023-12-22T07:33:43;99148.78;;;6.12;91.02
9129;BME280;4599;50.906;6.786;2023-12-22T07:37:45;99139.56;;;6.22;91.77
9129;BME280;4599;50.906;6.786;2023-12-22T07:41:47;99131.25;;;6.20;93.05
9129;BME280;4599;50.906;6.786;2023-12-22T07:45:48;99145.28;;;6.36;92.83
9129;BME280;4599;50.906;6.786;2023-12-22T07:49:51;99143.78;;;6.34;93.10
9129;BME280;4599;50.906;6.786;2023-12-22T07:53:53;99122.63;;;6.44;93.41
9129;BME280;4599;50.906;6.786;2023-12-22T07:57:55;99154.19;;;6.42;94.21
9129;BME280;4599;50.906;6.786;2023-12-22T08:01:56;99145.66;;;6.54;93.90
9129;BME280;4599;50.906;6.786;2023-12-22T08:05:59;99144.34;;;6.48;94.21
9129;BME280;4599;50.906;6.786;2023-12-22T08:10:01;99140.88;;;6.38;94.37
9129;BME280;4599;50.906;6.786;2023-12-22T08:14:03;99152.13;;;6.47;94.24
9129;BME280;4599;50.906;6.786;2023-12-22T08:18:05;99143.19;;;6.53;93.79
9129;BME280;4599;50.906;6.786;2023-12-22T08:22:08;99147.06;;;6.69;92.71
9129;BME280;4599;50.906;6.786;2023-12-22T08:26:10;99147.97;;;6.68;93.61
9129;BME280;4599;50.906;6.786;2023-12-22T08:30:13;99139.19;;;6.72;91.57
9129;BME280;4599;50.906;6.786;2023-12-22T08:34:15;99156.53;;;6.67;93.36
9129;BME280;4599;50.906;6.786;2023-12-22T08:38:18;99149.59;;;6.80;91.70
9129;BME280;4599;50.906;6.786;2023-12-22T08:42:19;99130.72;;;6.61;91.81
9129;BME280;4599;50.906;6.786;2023-12-22T08:46:21;99155.75;;;6.89;91.36
9129;BME280;4599;50.906;6.786;2023-12-22T08:50:23;99144.41;;;6.82;91.20
9129;BME280;4599;50.906;6.786;2023-12-22T08:54:25;99148.09;;;6.78;92.75
9129;BME280;4599;50.906;6.786;2023-12-22T08:58:27;99153.19;;;7.00;91.16
9129;BME280;4599;50.906;6.786;2023-12-22T09:02:29;99147.63;;;7.06;90.53
9129;BME280;4599;50.906;6.786;2023-12-22T09:06:30;99152.03;;;7.04;90.72
9129;BME280;4599;50.906;6.786;2023-12-22T09:10:33;99135.47;;;6.98;91.46
9129;BME280;4599;50.906;6.786;2023-12-22T09:14:35;99126.91;;;7.11;91.15
9129;BME280;4599;50.906;6.786;2023-12-22T09:18:37;99135.22;;;7.13;90.60
9129;BME280;4599;50.906;6.786;2023-12-22T09:22:38;99121.34;;;7.17;90.00
9129;BME280;4599;50.906;6.786;2023-12-22T09:26:41;99110.44;;;7.26;89.85
9129;BME280;4599;50.906;6.786;2023-12-22T09:30:43;99112.63;;;7.30;89.15
9129;BME280;4599;50.906;6.786;2023-12-22T09:34:44;99115.88;;;7.32;89.30
9129;BME280;4599;50.906;6.786;2023-12-22T09:38:46;99090.72;;;7.39;89.60
9129;BME280;4599;50.906;6.786;2023-12-22T09:42:50;99099.28;;;7.38;89.47
9129;BME280;4599;50.906;6.786;2023-12-22T09:46:58;99089.63;;;7.53;88.94
9129;BME280;4599;50.906;6.786;2023-12-22T09:51:01;99086.56;;;7.59;88.90
9129;BME280;4599;50.906;6.786;2023-12-22T09:55:04;99096.91;;;7.57;89.99
9129;BME280;4599;50.906;6.786;2023-12-22T09:59:09;99070.38;;;7.60;90.10
9129;BME280;4599;50.906;6.786;2023-12-22T10:03:12;99066.00;;;7.50;90.82
9129;BME280;4599;50.906;6.786;2023-12-22T10:07:14;99066.19;;;7.59;90.65
9129;BME280;4599;50.906;6.786;2023-12-22T10:11:16;99062.72;;;7.60;90.18
9129;BME280;4599;50.906;6.786;2023-12-22T10:15:21;99062.72;;;7.60;90.92
9129;BME280;4599;50.906;6.786;2023-12-22T10:19:23;99075.38;;;7.50;93.33
9129;BME280;4599;50.906;6.786;2023-12-22T10:23:25;99067.75;;;7.50;94.28
9129;BME280;4599;50.906;6.786;2023-12-22T10:27:27;99063.50;;;7.39;94.55
9129;BME280;4599;50.906;6.786;2023-12-22T10:31:39;99057.84;;;7.36;95.62
9129;BME280;4599;50.906;6.786;2023-12-22T10:35:41;99053.16;;;7.41;95.01
9129;BME280;4599;50.906;6.786;2023-12-22T10:39:43;99051.78;;;7.37;95.56
9129;BME280;4599;50.906;6.786;2023-12-22T10:43:45;99060.09;;;7.50;96.10
9129;BME280;4599;50.906;6.786;2023-12-22T10:47:49;99065.22;;;7.39;96.45
9129;BME280;4599;50.906;6.786;2023-12-22T10:51:51;99056.53;;;7.41;97.16
9129;BME280;4599;50.906;6.786;2023-12-22T10:55:53;99053.66;;;7.35;97.45
9129;BME280;4599;50.906;6.786;2023-12-22T10:59:56;99069.75;;;7.35;97.82
9129;BME280;4599;50.906;6.786;2023-12-22T11:04:01;99050.81;;;7.49;97.35
9129;BME280;4599;50.906;6.786;2023-12-22T11:08:07;99058.69;;;7.57;97.35
9129;BME280;4599;50.906;6.786;2023-12-22T11:12:11;99044.06;;;7.59;97.14
9129;BME280;4599;50.906;6.786;2023-12-22T11:16:14;99044.50;;;7.64;96.87
9129;BME280;4599;50.906;6.786;2023-12-22T11:20:18;99044.25;;;7.67;96.72
9129;BME280;4599;50.906;6.786;2023-12-22T11:24:20;99046.31;;;7.73;96.73
9129;BME280;4599;50.906;6.786;2023-12-22T11:28:23;99032.38;;;7.77;96.44
9129;BME280;4599;50.906;6.786;2023-12-22T11:32:25;99031.75;;;7.85;96.41
9129;BME280;4599;50.906;6.786;2023-12-22T11:36:29;99031.16;;;7.92;96.33
9129;BME280;4599;50.906;6.786;2023-12-22T11:40:32;99049.38;;;7.88;96.73
9129;BME280;4599;50.906;6.786;2023-12-22T11:44:35;99043.91;;;7.92;96.77
9129;BME280;4599;50.906;6.786;2023-12-22T11:48:37;99031.00;;;7.94;96.59
9129;BME280;4599;50.906;6.786;2023-12-22T11:52:40;99041.75;;;7.97;97.06
9129;BME280;4599;50.906;6.786;2023-12-22T11:56:42;99042.22;;;8.02;97.09
9129;BME280;4599;50.906;6.786;2023-12-22T12:00:43;99023.28;;;8.05;97.30
9129;BME280;4599;50.906;6.786;2023-12-22T12:04:47;99023.41;;;8.24;95.19
9129;BME280;4599;50.906;6.786;2023-12-22T12:08:50;99026.50;;;8.28;94.99
9129;BME280;4599;50.906;6.786;2023-12-22T12:13:04;99023.47;;;8.34;94.49
9129;BME280;4599;50.906;6.786;2023-12-22T12:17:07;99017.44;;;8.35;93.72
9129;BME280;4599;50.906;6.786;2023-12-22T12:21:10;98999.84;;;8.41;93.63
9129;BME280;4599;50.906;6.786;2023-12-22T12:25:14;99002.56;;;8.49;93.89
9129;BME280;4599;50.906;6.786;2023-12-22T12:29:27;99003.63;;;8.47;93.25
9129;BME280;4599;50.906;6.786;2023-12-22T12:33:31;99000.13;;;8.48;93.28
9129;BME280;4599;50.906;6.786;2023-12-22T12:37:33;99000.16;;;8.58;93.15
9129;BME280;4599;50.906;6.786;2023-12-22T12:41:40;99011.72;;;8.52;93.41
9129;BME280;4599;50.906;6.786;2023-12-22T12:45:42;98998.69;;;8.65;91.45
9129;BME280;4599;50.906;6.786;2023-12-22T12:49:43;99009.88;;;8.64;91.49
9129;BME280;4599;50.906;6.786;2023-12-22T12:53:45;99001.22;;;8.55;92.42
9129;BME280;4599;50.906;6.786;2023-12-22T12:57:49;98997.50;;;8.59;92.36
9129;BME280;4599;50.906;6.786;2023-12-22T13:01:52;98992.22;;;8.51;92.89
9129;BME280;4599;50.906;6.786;2023-12-22T13:06:05;98995.56;;;8.42;93.21
9129;BME280;4599;50.906;6.786;2023-12-22T13:10:19;98993.38;;;8.37;93.97
9129;BME280;4599;50.906;6.786;2023-12-22T13:14:25;98995.81;;;8.39;94.21
9129;BME280;4599;50.906;6.786;2023-12-22T13:18:27;99000.94;;;8.39;93.91
9129;BME280;4599;50.906;6.786;2023-12-22T13:22:29;99001.63;;;8.50;94.08
9129;BME280;4599;50.906;6.786;2023-12-22T13:26:30;98997.69;;;8.37;95.07
9129;BME280;4599;50.906;6.786;2023-12-22T13:30:33;99007.88;;;8.37;94.19
9129;BME280;4599;50.906;6.786;2023-12-22T13:34:35;99009.78;;;8.44;93.68
9129;BME280;4599;50.906;6.786;2023-12-22T13:38:37;98990.31;;;8.43;93.29
9129;BME280;4599;50.906;6.786;2023-12-22T13:42:38;99001.13;;;8.57;93.56
9129;BME280;4599;50.906;6.786;2023-12-22T13:46:41;99017.53;;;8.64;92.41
9129;BME280;4599;50.906;6.786;2023-12-22T13:50:55;99021.03;;;8.63;92.13
9129;BME280;4599;50.906;6.786;2023-12-22T13:54:57;99014.97;;;8.64;91.11
9129;BME280;4599;50.906;6.786;2023-12-22T13:58:58;99032.72;;;8.65;91.76
9129;BME280;4599;50.906;6.786;2023-12-22T14:03:02;99028.56;;;8.64;91.96
9129;BME280;4599;50.906;6.786;2023-12-22T14:07:04;99027.88;;;8.72;91.42
9129;BME280;4599;50.906;6.786;2023-12-22T14:11:05;99036.88;;;8.66;92.49
9129;BME280;4599;50.906;6.786;2023-12-22T14:15:08;99044.13;;;8.61;93.11
9129;BME280;4599;50.906;6.786;2023-12-22T14:19:10;99030.56;;;8.61;92.16
9129;BME280;4599;50.906;6.786;2023-12-22T14:23:12;99024.75;;;8.59;91.72
9129;BME280;4599;50.906;6.786;2023-12-22T14:27:15;99038.91;;;8.63;91.94
9129;BME280;4599;50.906;6.786;2023-12-22T14:31:17;99053.13;;;8.56;92.43
9129;BME280;4599;50.906;6.786;2023-12-22T14:35:19;99046.56;;;8.63;92.76
9129;BME280;4599;50.906;6.786;2023-12-22T14:39:21;99061.31;;;8.59;92.83
9129;BME280;4599;50.906;6.786;2023-12-22T14:43:23;99076.94;;;8.66;91.94
9129;BME280;4599;50.906;6.786;2023-12-22T14:47:24;99080.13;;;8.58;92.31
9129;BME280;4599;50.906;6.786;2023-12-22T14:51:27;99084.53;;;8.46;92.87
9129;BME280;4599;50.906;6.786;2023-12-22T14:55:30;99071.09;;;8.54;92.42
9129;BME280;4599;50.906;6.786;2023-12-22T14:59:31;99082.94;;;8.55;93.14
9129;BME280;4599;50.906;6.786;2023-12-22T15:03:33;99088.28;;;8.42;93.57
9129;BME280;4599;50.906;6.786;2023-12-22T15:07:36;99059.38;;;8.21;92.70
9129;BME280;4599;50.906;6.786;2023-12-22T15:11:41;99081.84;;;8.48;92.35
9129;BME280;4599;50.906;6.786;2023-12-22T15:15:42;99081.84;;;8.48;92.82
9129;BME280;4599;50.906;6.786;2023-12-22T15:19:44;99091.84;;;8.40;93.73
9129;BME280;4599;50.906;6.786;2023-12-22T15:23:47;99105.69;;;8.37;93.68
9129;BME280;4599;50.906;6.786;2023-12-22T15:27:48;99109.63;;;8.41;94.10
9129;BME280;4599;50.906;6.786;2023-12-22T15:31:50;99120.72;;;8.31;94.85
9129;BME280;4599;50.906;6.786;2023-12-22T15:35:54;99127.03;;;8.36;94.92
9129;BME280;4599;50.906;6.786;2023-12-22T15:39:57;99116.41;;;8.31;94.76
9129;BME280;4599;50.906;6.786;2023-12-22T15:43:59;99120.38;;;8.24;95.51
9129;BME280;4599;50.906;6.786;2023-12-22T15:48:01;99127.78;;;8.27;95.56
9129;BME280;4599;50.906;6.786;2023-12-22T15:52:02;99136.78;;;8.42;94.08
9129;BME280;4599;50.906;6.786;2023-12-22T15:56:07;99128.09;;;8.34;94.83
9129;BME280;4599;50.906;6.786;2023-12-22T16:00:10;99136.94;;;8.30;94.65
9129;BME280;4599;50.906;6.786;2023-12-22T16:04:11;99148.31;;;8.26;94.61
9129;BME280;4599;50.906;6.786;2023-12-22T16:08:13;99141.00;;;8.32;93.45
9129;BME280;4599;50.906;6.786;2023-12-22T16:12:16;99137.31;;;8.25;94.83
9129;BME280;4599;50.906;6.786;2023-12-22T16:16:18;99153.53;;;8.35;94.01
9129;BME280;4599;50.906;6.786;2023-12-22T16:20:20;99144.75;;;8.28;94.77
9129;BME280;4599;50.906;6.786;2023-12-22T16:24:22;99141.47;;;8.26;94.72
9129;BME280;4599;50.906;6.786;2023-12-22T16:28:25;99137.66;;;8.32;94.26
9129;BME280;4599;50.906;6.786;2023-12-22T16:32:27;99151.53;;;8.39;94.13
9129;BME280;4599;50.906;6.786;2023-12-22T16:36:29;99151.34;;;8.31;94.38
9129;BME280;4599;50.906;6.786;2023-12-22T16:40:31;99167.72;;;8.28;94.60
9129;BME280;4599;50.906;6.786;2023-12-22T16:44:36;99155.63;;;8.30;94.16
9129;BME280;4599;50.906;6.786;2023-12-22T16:48:38;99162.69;;;8.27;93.88
9129;BME280;4599;50.906;6.786;2023-12-22T16:52:39;99155.00;;;8.38;93.77
9129;BME280;4599;50.906;6.786;2023-12-22T16:56:41;99157.56;;;8.38;93.32
9129;BME280;4599;50.906;6.786;2023-12-22T17:00:44;99180.25;;;8.20;94.22
9129;BME280;4599;50.906;6.786;2023-12-22T17:05:05;99172.31;;;8.34;93.74
9129;BME280;4599;50.906;6.786;2023-12-22T17:09:08;99173.38;;;8.32;93.74
9129;BME280;4599;50.906;6.786;2023-12-22T17:13:10;99178.59;;;8.30;93.28
9129;BME280;4599;50.906;6.786;2023-12-22T17:17:12;99165.47;;;8.35;93.51
9129;BME280;4599;50.906;6.786;2023-12-22T17:21:14;99172.63;;;8.41;92.49
9129;BME280;4599;50.906;6.786;2023-12-22T17:25:15;99183.34;;;8.35;93.28
9129;BME280;4599;50.906;6.786;2023-12-22T17:29:17;99171.00;;;8.40;93.23
9129;BME280;4599;50.906;6.786;2023-12-22T17:33:20;99170.22;;;8.39;92.54
9129;BME280;4599;50.906;6.786;2023-12-22T17:37:22;99174.09;;;8.43;91.85
9129;BME280;4599;50.906;6.786;2023-12-22T17:41:24;99185.28;;;8.42;92.01
9129;BME280;4599;50.906;6.786;2023-12-22T17:45:26;99185.94;;;8.44;91.64
9129;BME280;4599;50.906;6.786;2023-12-22T17:49:29;99185.03;;;8.45;91.44
9129;BME280;4599;50.906;6.786;2023-12-22T17:53:30;99196.59;;;8.49;91.67
9129;BME280;4599;50.906;6.786;2023-12-22T17:57:32;99206.44;;;8.54;91.25
9129;BME280;4599;50.906;6.786;2023-12-22T18:01:33;99201.72;;;8.49;89.99
9129;BME280;4599;50.906;6.786;2023-12-22T18:05:36;99209.44;;;8.59;89.82
9129;BME280;4599;50.906;6.786;2023-12-22T18:09:38;99198.84;;;8.64;88.95
9129;BME280;4599;50.906;6.786;2023-12-22T18:13:40;99220.09;;;8.64;88.71
9129;BME280;4599;50.906;6.786;2023-12-22T18:17:41;99227.34;;;8.69;88.86
9129;BME280;4599;50.906;6.786;2023-12-22T18:21:44;99225.50;;;8.71;88.59
9129;BME280;4599;50.906;6.786;2023-12-22T18:25:46;99232.97;;;8.83;88.13
9129;BME280;4599;50.906;6.786;2023-12-22T18:29:47;99228.47;;;8.76;87.63
9129;BME280;4599;50.906;6.786;2023-12-22T18:33:49;99214.78;;;8.77;88.05
9129;BME280;4599;50.906;6.786;2023-12-22T18:37:52;99230.34;;;8.74;88.05
9129;BME280;4599;50.906;6.786;2023-12-22T18:41:54;99227.91;;;8.72;89.12
9129;BME280;4599;50.906;6.786;2023-12-22T18:45:55;99244.25;;;8.60;90.04
9129;BME280;4599;50.906;6.786;2023-12-22T18:49:57;99260.19;;;8.53;90.98
9129;BME280;4599;50.906;6.786;2023-12-22T18:54:00;99250.09;;;8.51;91.60
9129;BME280;4599;50.906;6.786;2023-12-22T18:58:03;99259.72;;;8.47;91.03
9129;BME280;4599;50.906;6.786;2023-12-22T19:02:04;99254.25;;;8.52;90.52
9129;BME280;4599;50.906;6.786;2023-12-22T19:06:26;99253.34;;;8.53;89.49
9129;BME280;4599;50.906;6.786;2023-12-22T19:10:29;99261.44;;;8.58;89.24
9129;BME280;4599;50.906;6.786;2023-12-22T19:14:31;99253.50;;;8.61;87.82
9129;BME280;4599;50.906;6.786;2023-12-22T19:18:33;99267.97;;;8.72;87.45
9129;BME280;4599;50.906;6.786;2023-12-22T19:22:35;99278.06;;;8.73;88.15
9129;BME280;4599;50.906;6.786;2023-12-22T19:26:38;99290.88;;;8.62;88.81
9129;BME280;4599;50.906;6.786;2023-12-22T19:30:39;99284.53;;;8.57;89.66
9129;BME280;4599;50.906;6.786;2023-12-22T19:34:41;99285.25;;;8.47;89.68
9129;BME280;4599;50.906;6.786;2023-12-22T19:38:42;99315.66;;;8.50;88.52
9129;BME280;4599;50.906;6.786;2023-12-22T19:42:45;99312.53;;;8.47;89.20
9129;BME280;4599;50.906;6.786;2023-12-22T19:46:47;99318.16;;;8.62;86.82
9129;BME280;4599;50.906;6.786;2023-12-22T19:50:49;99302.03;;;8.61;86.85
9129;BME280;4599;50.906;6.786;2023-12-22T19:54:50;99316.03;;;8.78;85.71
9129;BME280;4599;50.906;6.786;2023-12-22T19:58:53;99320.44;;;8.76;84.76
9129;BME280;4599;50.906;6.786;2023-12-22T20:02:55;99335.91;;;8.74;84.92
9129;BME280;4599;50.906;6.786;2023-12-22T20:06:57;99353.88;;;8.73;83.98
9129;BME280;4599;50.906;6.786;2023-12-22T20:10:58;99353.22;;;8.71;83.77
9129;BME280;4599;50.906;6.786;2023-12-22T20:15:01;99354.69;;;8.73;83.86
9129;BME280;4599;50.906;6.786;2023-12-22T20:19:03;99355.63;;;8.72;83.14
9129;BME280;4599;50.906;6.786;2023-12-22T20:23:04;99364.59;;;8.67;82.98
9129;BME280;4599;50.906;6.786;2023-12-22T20:27:06;99382.41;;;8.57;82.92
9129;BME280;4599;50.906;6.786;2023-12-22T20:31:09;99377.50;;;8.54;82.83
9129;BME280;4599;50.906;6.786;2023-12-22T20:35:10;99377.19;;;8.47;84.64
9129;BME280;4599;50.906;6.786;2023-12-22T20:39:12;99388.41;;;8.67;83.49
9129;BME280;4599;50.906;6.786;2023-12-22T20:43:13;99405.47;;;8.67;83.08
9129;BME280;4599;50.906;6.786;2023-12-22T20:47:17;99400.56;;;8.75;83.15
9129;BME280;4599;50.906;6.786;2023-12-22T20:51:18;99392.56;;;8.68;83.18
9129;BME280;4599;50.906;6.786;2023-12-22T20:55:20;99402.56;;;8.71;84.00
9129;BME280;4599;50.906;6.786;2023-12-22T20:59:21;99416.00;;;8.73;82.99
9129;BME280;4599;50.906;6.786;2023-12-22T21:03:25;99409.41;;;8.71;83.43
9129;BME280;4599;50.906;6.786;2023-12-22T21:07:26;99409.41;;;8.71;82.54
9129;BME280;4599;50.906;6.786;2023-12-22T21:11:28;99428.09;;;8.71;82.95
9129;BME280;4599;50.906;6.786;2023-12-22T21:15:29;99422.84;;;8.73;83.34
9129;BME280;4599;50.906;6.786;2023-12-22T21:19:32;99435.78;;;8.60;83.69
9129;BME280;4599;50.906;6.786;2023-12-22T21:23:34;99409.06;;;8.64;83.92
9129;BME280;4599;50.906;6.786;2023-12-22T21:27:35;99437.88;;;8.55;85.23
9129;BME280;4599;50.906;6.786;2023-12-22T21:31:41;99434.81;;;8.61;85.83
9129;BME280;4599;50.906;6.786;2023-12-22T21:35:45;99429.78;;;8.39;86.39
9129;BME280;4599;50.906;6.786;2023-12-22T21:39:46;99430.94;;;8.46;85.97
9129;BME280;4599;50.906;6.786;2023-12-22T21:43:48;99415.63;;;8.46;84.27
9129;BME280;4599;50.906;6.786;2023-12-22T21:47:50;99439.00;;;8.62;83.84
9129;BME280;4599;50.906;6.786;2023-12-22T21:51:53;99467.91;;;8.63;83.76
9129;BME280;4599;50.906;6.786;2023-12-22T21:55:54;99464.91;;;8.58;84.34
9129;BME280;4599;50.906;6.786;2023-12-22T21:59:56;99480.72;;;8.40;85.74
9129;BME280;4599;50.906;6.786;2023-12-22T22:03:59;99488.13;;;8.43;86.68
9129;BME280;4599;50.906;6.786;2023-12-22T22:08:02;99508.56;;;8.32;87.96
9129;BME280;4599;50.906;6.786;2023-12-22T22:12:05;99525.09;;;8.16;89.83
9129;BME280;4599;50.906;6.786;2023-12-22T22:16:07;99546.81;;;8.10;91.06